sensor_id;sensor_type;location;lat;lon;timestamp;P1;durP1;ratioP1;P2;durP2;ratioP2
11319;SDS011;5715;48.234;14.320;2024-02-26T00:00:06;3.97;;;3.63;;
11319;SDS011;5715;48.234;14.320;2024-02-26T00:02:56;5.93;;;4.00;;
11319;SDS011;5715;48.234;14.320;2024-02-26T00:05:43;3.70;;;3.40;;
11319;SDS011;5715;48.234;14.320;2024-02-26T00:08:31;4.30;;;3.93;;
11319;SDS011;5715;48.234;14.320;2024-02-26T00:11:19;3.77;;;3.47;;
11319;SDS011;5715;48.234;14.320;2024-02-26T00:14:06;3.60;;;3.30;;
11319;SDS011;5715;48.234;14.320;2024-02-26T00:16:54;3.80;;;3.47;;
11319;SDS011;5715;48.234;14.320;2024-02-26T00:19:42;3.73;;;3.17;;
11319;SDS011;5715;48.234;14.320;2024-02-26T00:22:30;4.20;;;3.67;;
11319;SDS011;5715;48.234;14.320;2024-02-26T00:25:18;6.27;;;4.20;;
11319;SDS011;5715;48.234;14.320;2024-02-26T00:28:06;4.40;;;3.73;;
11319;SDS011;5715;48.234;14.320;2024-02-26T00:30:54;4.43;;;3.40;;
11319;SDS011;5715;48.234;14.320;2024-02-26T00:33:42;7.87;;;4.93;;
11319;SDS011;5715;48.234;14.320;2024-02-26T00:36:30;4.67;;;4.23;;
11319;SDS011;5715;48.234;14.320;2024-02-26T00:39:18;6.13;;;4.07;;
11319;SDS011;5715;48.234;14.320;2024-02-26T00:42:06;5.57;;;5.00;;
11319;SDS011;5715;48.234;14.320;2024-02-26T00:44:54;4.67;;;4.17;;
11319;SDS011;5715;48.234;14.320;2024-02-26T00:47:42;5.00;;;4.57;;
11319;SDS011;5715;48.234;14.320;2024-02-26T00:50:31;8.30;;;4.53;;
11319;SDS011;5715;48.234;14.320;2024-02-26T00:53:19;4.97;;;4.37;;
11319;SDS011;5715;48.234;14.320;2024-02-26T00:56:06;7.57;;;4.87;;
11319;SDS011;5715;48.234;14.320;2024-02-26T00:58:54;5.40;;;3.90;;
11319;SDS011;5715;48.234;14.320;2024-02-26T01:01:42;5.50;;;3.80;;
11319;SDS011;5715;48.234;14.320;2024-02-26T01:04:29;5.87;;;4.97;;
11319;SDS011;5715;48.234;14.320;2024-02-26T01:07:18;6.07;;;3.97;;
11319;SDS011;5715;48.234;14.320;2024-02-26T01:10:06;4.87;;;4.10;;
11319;SDS011;5715;48.234;14.320;2024-02-26T01:12:55;6.33;;;3.80;;
11319;SDS011;5715;48.234;14.320;2024-02-26T01:15:43;5.70;;;4.77;;
11319;SDS011;5715;48.234;14.320;2024-02-26T01:18:31;4.37;;;4.00;;
11319;SDS011;5715;48.234;14.320;2024-02-26T01:21:19;6.60;;;5.93;;
11319;SDS011;5715;48.234;14.320;2024-02-26T01:24:06;6.50;;;4.40;;
11319;SDS011;5715;48.234;14.320;2024-02-26T01:26:54;5.03;;;4.10;;
11319;SDS011;5715;48.234;14.320;2024-02-26T01:29:42;4.80;;;4.30;;
11319;SDS011;5715;48.234;14.320;2024-02-26T01:32:30;4.97;;;4.53;;
11319;SDS011;5715;48.234;14.320;2024-02-26T01:35:18;6.03;;;4.27;;
11319;SDS011;5715;48.234;14.320;2024-02-26T01:38:06;4.10;;;3.80;;
11319;SDS011;5715;48.234;14.320;2024-02-26T01:40:54;5.47;;;3.57;;
11319;SDS011;5715;48.234;14.320;2024-02-26T01:43:42;3.63;;;3.33;;
11319;SDS011;5715;48.234;14.320;2024-02-26T01:46:29;3.90;;;3.57;;
11319;SDS011;5715;48.234;14.320;2024-02-26T01:49:20;4.77;;;4.03;;
11319;SDS011;5715;48.234;14.320;2024-02-26T01:52:08;4.23;;;3.70;;
11319;SDS011;5715;48.234;14.320;2024-02-26T01:54:57;5.10;;;3.73;;
11319;SDS011;5715;48.234;14.320;2024-02-26T01:57:48;4.30;;;3.57;;
11319;SDS011;5715;48.234;14.320;2024-02-26T02:00:39;7.00;;;5.07;;
11319;SDS011;5715;48.234;14.320;2024-02-26T02:03:27;6.50;;;3.90;;
11319;SDS011;5715;48.234;14.320;2024-02-26T02:06:16;5.77;;;4.87;;
11319;SDS011;5715;48.234;14.320;2024-02-26T02:09:04;3.33;;;3.03;;
11319;SDS011;5715;48.234;14.320;2024-02-26T02:11:54;4.90;;;4.33;;
11319;SDS011;5715;48.234;14.320;2024-02-26T02:14:42;3.83;;;3.53;;
11319;SDS011;5715;48.234;14.320;2024-02-26T02:17:30;6.17;;;3.83;;
11319;SDS011;5715;48.234;14.320;2024-02-26T02:20:18;3.70;;;3.27;;
11319;SDS011;5715;48.234;14.320;2024-02-26T02:23:10;4.70;;;3.73;;
11319;SDS011;5715;48.234;14.320;2024-02-26T02:25:58;3.57;;;3.27;;
11319;SDS011;5715;48.234;14.320;2024-02-26T02:28:46;3.30;;;3.00;;
11319;SDS011;5715;48.234;14.320;2024-02-26T02:31:35;3.60;;;3.40;;
11319;SDS011;5715;48.234;14.320;2024-02-26T02:34:23;3.50;;;3.20;;
11319;SDS011;5715;48.234;14.320;2024-02-26T02:37:12;3.80;;;3.40;;
11319;SDS011;5715;48.234;14.320;2024-02-26T02:39:59;5.10;;;4.60;;
11319;SDS011;5715;48.234;14.320;2024-02-26T02:42:47;4.27;;;3.87;;
11319;SDS011;5715;48.234;14.320;2024-02-26T02:45:34;4.27;;;3.97;;
11319;SDS011;5715;48.234;14.320;2024-02-26T02:48:22;4.73;;;4.17;;
11319;SDS011;5715;48.234;14.320;2024-02-26T02:51:10;3.93;;;3.23;;
11319;SDS011;5715;48.234;14.320;2024-02-26T02:53:58;3.77;;;3.37;;
11319;SDS011;5715;48.234;14.320;2024-02-26T02:56:45;7.03;;;3.87;;
11319;SDS011;5715;48.234;14.320;2024-02-26T02:59:33;2.60;;;2.40;;
11319;SDS011;5715;48.234;14.320;2024-02-26T03:02:21;3.90;;;3.60;;
11319;SDS011;5715;48.234;14.320;2024-02-26T03:05:11;4.43;;;3.80;;
11319;SDS011;5715;48.234;14.320;2024-02-26T03:07:59;5.43;;;3.87;;
11319;SDS011;5715;48.234;14.320;2024-02-26T03:10:47;4.33;;;4.03;;
11319;SDS011;5715;48.234;14.320;2024-02-26T03:13:34;3.60;;;3.30;;
11319;SDS011;5715;48.234;14.320;2024-02-26T03:16:23;3.93;;;3.50;;
11319;SDS011;5715;48.234;14.320;2024-02-26T03:19:10;2.90;;;2.60;;
11319;SDS011;5715;48.234;14.320;2024-02-26T03:22:01;3.50;;;3.20;;
11319;SDS011;5715;48.234;14.320;2024-02-26T03:24:49;3.40;;;3.20;;
11319;SDS011;5715;48.234;14.320;2024-02-26T03:27:36;5.30;;;4.37;;
11319;SDS011;5715;48.234;14.320;2024-02-26T03:30:24;3.87;;;3.47;;
11319;SDS011;5715;48.234;14.320;2024-02-26T03:33:12;3.97;;;3.67;;
11319;SDS011;5715;48.234;14.320;2024-02-26T03:36:00;3.57;;;3.27;;
11319;SDS011;5715;48.234;14.320;2024-02-26T03:38:48;3.30;;;3.10;;
11319;SDS011;5715;48.234;14.320;2024-02-26T03:41:36;3.87;;;2.50;;
11319;SDS011;5715;48.234;14.320;2024-02-26T03:44:23;5.20;;;3.37;;
11319;SDS011;5715;48.234;14.320;2024-02-26T03:47:11;3.43;;;3.13;;
11319;SDS011;5715;48.234;14.320;2024-02-26T03:49:59;3.70;;;3.13;;
11319;SDS011;5715;48.234;14.320;2024-02-26T03:52:47;3.53;;;3.23;;
11319;SDS011;5715;48.234;14.320;2024-02-26T03:55:34;2.47;;;2.27;;
11319;SDS011;5715;48.234;14.320;2024-02-26T03:58:22;3.13;;;2.73;;
11319;SDS011;5715;48.234;14.320;2024-02-26T04:01:10;3.93;;;3.30;;
11319;SDS011;5715;48.234;14.320;2024-02-26T04:03:57;3.63;;;3.33;;
11319;SDS011;5715;48.234;14.320;2024-02-26T04:06:46;3.10;;;2.80;;
11319;SDS011;5715;48.234;14.320;2024-02-26T04:09:34;3.57;;;3.33;;
11319;SDS011;5715;48.234;14.320;2024-02-26T04:12:22;4.03;;;3.30;;
11319;SDS011;5715;48.234;14.320;2024-02-26T04:15:10;3.10;;;2.87;;
11319;SDS011;5715;48.234;14.320;2024-02-26T04:17:58;5.53;;;4.97;;
11319;SDS011;5715;48.234;14.320;2024-02-26T04:20:46;3.70;;;3.37;;
11319;SDS011;5715;48.234;14.320;2024-02-26T04:23:34;4.00;;;3.70;;
11319;SDS011;5715;48.234;14.320;2024-02-26T04:26:22;4.10;;;3.43;;
11319;SDS011;5715;48.234;14.320;2024-02-26T04:29:09;4.13;;;3.83;;
11319;SDS011;5715;48.234;14.320;2024-02-26T04:31:57;2.83;;;2.60;;
11319;SDS011;5715;48.234;14.320;2024-02-26T04:34:45;2.73;;;2.53;;
11319;SDS011;5715;48.234;14.320;2024-02-26T04:37:32;3.37;;;3.07;;
11319;SDS011;5715;48.234;14.320;2024-02-26T04:40:20;2.83;;;2.63;;
11319;SDS011;5715;48.234;14.320;2024-02-26T04:43:08;9.70;;;3.57;;
11319;SDS011;5715;48.234;14.320;2024-02-26T04:45:56;4.03;;;3.57;;
11319;SDS011;5715;48.234;14.320;2024-02-26T04:48:43;2.93;;;2.70;;
11319;SDS011;5715;48.234;14.320;2024-02-26T04:51:33;3.17;;;2.97;;
11319;SDS011;5715;48.234;14.320;2024-02-26T04:54:21;2.57;;;2.37;;
11319;SDS011;5715;48.234;14.320;2024-02-26T04:57:09;3.73;;;3.30;;
11319;SDS011;5715;48.234;14.320;2024-02-26T04:59:56;4.40;;;3.90;;
11319;SDS011;5715;48.234;14.320;2024-02-26T05:02:44;2.60;;;2.40;;
11319;SDS011;5715;48.234;14.320;2024-02-26T05:05:32;3.60;;;3.30;;
11319;SDS011;5715;48.234;14.320;2024-02-26T05:08:20;2.90;;;2.60;;
11319;SDS011;5715;48.234;14.320;2024-02-26T05:11:07;4.27;;;3.90;;
11319;SDS011;5715;48.234;14.320;2024-02-26T05:13:55;2.73;;;2.63;;
11319;SDS011;5715;48.234;14.320;2024-02-26T05:16:43;3.70;;;3.40;;
11319;SDS011;5715;48.234;14.320;2024-02-26T05:19:31;5.23;;;3.93;;
11319;SDS011;5715;48.234;14.320;2024-02-26T05:22:19;4.83;;;4.30;;
11319;SDS011;5715;48.234;14.320;2024-02-26T05:25:07;2.63;;;2.53;;
11319;SDS011;5715;48.234;14.320;2024-02-26T05:27:55;3.63;;;3.33;;
11319;SDS011;5715;48.234;14.320;2024-02-26T05:30:42;2.80;;;2.60;;
11319;SDS011;5715;48.234;14.320;2024-02-26T05:33:30;3.17;;;2.97;;
11319;SDS011;5715;48.234;14.320;2024-02-26T05:36:18;4.00;;;3.37;;
11319;SDS011;5715;48.234;14.320;2024-02-26T05:39:10;3.67;;;3.37;;
11319;SDS011;5715;48.234;14.320;2024-02-26T05:42:04;4.07;;;3.60;;
11319;SDS011;5715;48.234;14.320;2024-02-26T05:44:52;4.50;;;3.63;;
11319;SDS011;5715;48.234;14.320;2024-02-26T05:47:39;5.27;;;3.03;;
11319;SDS011;5715;48.234;14.320;2024-02-26T05:50:29;3.77;;;2.60;;
11319;SDS011;5715;48.234;14.320;2024-02-26T05:53:17;2.27;;;2.17;;
11319;SDS011;5715;48.234;14.320;2024-02-26T05:56:05;4.10;;;3.37;;
11319;SDS011;5715;48.234;14.320;2024-02-26T05:58:53;2.80;;;2.60;;
11319;SDS011;5715;48.234;14.320;2024-02-26T06:01:41;3.40;;;3.10;;
11319;SDS011;5715;48.234;14.320;2024-02-26T06:04:28;4.60;;;3.67;;
11319;SDS011;5715;48.234;14.320;2024-02-26T06:07:16;4.23;;;2.90;;
11319;SDS011;5715;48.234;14.320;2024-02-26T06:10:04;4.00;;;3.63;;
11319;SDS011;5715;48.234;14.320;2024-02-26T06:12:52;2.97;;;2.77;;
11319;SDS011;5715;48.234;14.320;2024-02-26T06:15:40;3.33;;;3.03;;
11319;SDS011;5715;48.234;14.320;2024-02-26T06:18:28;3.13;;;2.83;;
11319;SDS011;5715;48.234;14.320;2024-02-26T06:21:16;3.90;;;3.60;;
11319;SDS011;5715;48.234;14.320;2024-02-26T06:24:04;3.53;;;3.23;;
11319;SDS011;5715;48.234;14.320;2024-02-26T06:26:51;3.97;;;3.30;;
11319;SDS011;5715;48.234;14.320;2024-02-26T06:29:39;4.07;;;3.67;;
11319;SDS011;5715;48.234;14.320;2024-02-26T06:32:27;4.27;;;3.83;;
11319;SDS011;5715;48.234;14.320;2024-02-26T06:35:16;3.53;;;3.23;;
11319;SDS011;5715;48.234;14.320;2024-02-26T06:38:03;3.67;;;3.37;;
11319;SDS011;5715;48.234;14.320;2024-02-26T06:40:51;3.57;;;2.70;;
11319;SDS011;5715;48.234;14.320;2024-02-26T06:43:39;2.30;;;2.20;;
11319;SDS011;5715;48.234;14.320;2024-02-26T06:46:26;3.27;;;3.07;;
11319;SDS011;5715;48.234;14.320;2024-02-26T06:49:18;3.93;;;3.53;;
11319;SDS011;5715;48.234;14.320;2024-02-26T06:52:06;3.50;;;3.20;;
11319;SDS011;5715;48.234;14.320;2024-02-26T06:54:53;3.83;;;3.53;;
11319;SDS011;5715;48.234;14.320;2024-02-26T06:57:41;3.80;;;3.40;;
11319;SDS011;5715;48.234;14.320;2024-02-26T07:00:29;4.47;;;3.43;;
11319;SDS011;5715;48.234;14.320;2024-02-26T07:03:16;4.90;;;2.73;;
11319;SDS011;5715;48.234;14.320;2024-02-26T07:06:04;5.03;;;3.57;;
11319;SDS011;5715;48.234;14.320;2024-02-26T07:08:52;10.73;;;3.77;;
11319;SDS011;5715;48.234;14.320;2024-02-26T07:11:40;2.97;;;2.77;;
11319;SDS011;5715;48.234;14.320;2024-02-26T07:14:29;2.43;;;2.33;;
11319;SDS011;5715;48.234;14.320;2024-02-26T07:17:17;3.97;;;3.50;;
11319;SDS011;5715;48.234;14.320;2024-02-26T07:20:05;2.50;;;2.30;;
11319;SDS011;5715;48.234;14.320;2024-02-26T07:22:56;7.10;;;3.50;;
11319;SDS011;5715;48.234;14.320;2024-02-26T07:25:44;3.47;;;3.17;;
11319;SDS011;5715;48.234;14.320;2024-02-26T07:28:34;4.70;;;3.50;;
11319;SDS011;5715;48.234;14.320;2024-02-26T07:31:22;3.77;;;3.33;;
11319;SDS011;5715;48.234;14.320;2024-02-26T07:34:09;3.73;;;3.43;;
11319;SDS011;5715;48.234;14.320;2024-02-26T07:36:57;3.47;;;3.13;;
11319;SDS011;5715;48.234;14.320;2024-02-26T07:39:45;3.90;;;3.53;;
11319;SDS011;5715;48.234;14.320;2024-02-26T07:42:33;3.10;;;2.90;;
11319;SDS011;5715;48.234;14.320;2024-02-26T07:45:21;3.13;;;2.93;;
11319;SDS011;5715;48.234;14.320;2024-02-26T07:48:09;4.27;;;3.87;;
11319;SDS011;5715;48.234;14.320;2024-02-26T07:50:57;3.03;;;2.70;;
11319;SDS011;5715;48.234;14.320;2024-02-26T07:53:47;3.07;;;2.87;;
11319;SDS011;5715;48.234;14.320;2024-02-26T07:56:34;3.97;;;3.63;;
11319;SDS011;5715;48.234;14.320;2024-02-26T07:59:22;6.10;;;3.93;;
11319;SDS011;5715;48.234;14.320;2024-02-26T08:02:10;4.53;;;4.07;;
11319;SDS011;5715;48.234;14.320;2024-02-26T08:04:58;4.80;;;4.03;;
11319;SDS011;5715;48.234;14.320;2024-02-26T08:07:46;3.93;;;3.63;;
11319;SDS011;5715;48.234;14.320;2024-02-26T08:10:35;3.47;;;3.10;;
11319;SDS011;5715;48.234;14.320;2024-02-26T08:13:23;4.57;;;3.43;;
11319;SDS011;5715;48.234;14.320;2024-02-26T08:16:10;6.20;;;4.33;;
11319;SDS011;5715;48.234;14.320;2024-02-26T08:18:58;6.37;;;4.77;;
11319;SDS011;5715;48.234;14.320;2024-02-26T08:21:46;3.43;;;3.07;;
11319;SDS011;5715;48.234;14.320;2024-02-26T08:24:34;4.60;;;4.07;;
11319;SDS011;5715;48.234;14.320;2024-02-26T08:27:21;5.93;;;4.73;;
11319;SDS011;5715;48.234;14.320;2024-02-26T08:30:11;9.40;;;5.13;;
11319;SDS011;5715;48.234;14.320;2024-02-26T08:33:03;5.43;;;4.30;;
11319;SDS011;5715;48.234;14.320;2024-02-26T08:35:51;4.93;;;4.00;;
11319;SDS011;5715;48.234;14.320;2024-02-26T08:38:38;7.03;;;4.80;;
11319;SDS011;5715;48.234;14.320;2024-02-26T08:41:26;7.83;;;5.93;;
11319;SDS011;5715;48.234;14.320;2024-02-26T08:44:14;5.73;;;4.47;;
11319;SDS011;5715;48.234;14.320;2024-02-26T08:47:01;10.43;;;6.00;;
11319;SDS011;5715;48.234;14.320;2024-02-26T08:49:49;5.57;;;4.37;;
11319;SDS011;5715;48.234;14.320;2024-02-26T08:52:37;7.70;;;5.93;;
11319;SDS011;5715;48.234;14.320;2024-02-26T08:55:25;6.70;;;6.03;;
11319;SDS011;5715;48.234;14.320;2024-02-26T08:58:13;6.90;;;5.83;;
11319;SDS011;5715;48.234;14.320;2024-02-26T09:01:00;8.93;;;6.70;;
11319;SDS011;5715;48.234;14.320;2024-02-26T09:03:48;5.73;;;4.30;;
11319;SDS011;5715;48.234;14.320;2024-02-26T09:06:36;6.37;;;5.00;;
11319;SDS011;5715;48.234;14.320;2024-02-26T09:09:24;7.83;;;6.07;;
11319;SDS011;5715;48.234;14.320;2024-02-26T09:12:13;11.23;;;6.47;;
11319;SDS011;5715;48.234;14.320;2024-02-26T09:15:01;7.37;;;5.07;;
11319;SDS011;5715;48.234;14.320;2024-02-26T09:17:48;7.43;;;5.77;;
11319;SDS011;5715;48.234;14.320;2024-02-26T09:20:37;6.63;;;5.97;;
11319;SDS011;5715;48.234;14.320;2024-02-26T09:23:25;8.53;;;6.07;;
11319;SDS011;5715;48.234;14.320;2024-02-26T09:26:14;6.87;;;5.83;;
11319;SDS011;5715;48.234;14.320;2024-02-26T09:29:02;9.40;;;6.43;;
11319;SDS011;5715;48.234;14.320;2024-02-26T09:31:50;5.87;;;5.37;;
11319;SDS011;5715;48.234;14.320;2024-02-26T09:34:39;7.03;;;6.03;;
11319;SDS011;5715;48.234;14.320;2024-02-26T09:37:28;6.63;;;5.70;;
11319;SDS011;5715;48.234;14.320;2024-02-26T09:40:16;7.87;;;4.83;;
11319;SDS011;5715;48.234;14.320;2024-02-26T09:43:04;9.67;;;7.67;;
11319;SDS011;5715;48.234;14.320;2024-02-26T09:45:54;9.83;;;6.10;;
11319;SDS011;5715;48.234;14.320;2024-02-26T09:48:42;9.10;;;6.33;;
11319;SDS011;5715;48.234;14.320;2024-02-26T09:51:33;9.73;;;7.17;;
11319;SDS011;5715;48.234;14.320;2024-02-26T09:54:21;11.90;;;7.67;;
11319;SDS011;5715;48.234;14.320;2024-02-26T09:57:13;8.17;;;6.80;;
11319;SDS011;5715;48.234;14.320;2024-02-26T10:00:04;12.33;;;6.33;;
11319;SDS011;5715;48.234;14.320;2024-02-26T10:02:56;7.70;;;6.03;;
11319;SDS011;5715;48.234;14.320;2024-02-26T10:05:49;12.13;;;5.93;;
11319;SDS011;5715;48.234;14.320;2024-02-26T10:08:38;10.47;;;5.73;;
11319;SDS011;5715;48.234;14.320;2024-02-26T10:11:26;5.70;;;4.73;;
11319;SDS011;5715;48.234;14.320;2024-02-26T10:14:18;8.73;;;5.53;;
11319;SDS011;5715;48.234;14.320;2024-02-26T10:17:09;8.47;;;5.70;;
11319;SDS011;5715;48.234;14.320;2024-02-26T10:20:13;6.50;;;4.90;;
11319;SDS011;5715;48.234;14.320;2024-02-26T10:23:08;9.50;;;4.47;;
11319;SDS011;5715;48.234;14.320;2024-02-26T10:25:56;7.07;;;5.17;;
11319;SDS011;5715;48.234;14.320;2024-02-26T10:28:44;6.67;;;4.50;;
11319;SDS011;5715;48.234;14.320;2024-02-26T10:31:37;12.07;;;5.43;;
11319;SDS011;5715;48.234;14.320;2024-02-26T10:34:24;5.37;;;4.37;;
11319;SDS011;5715;48.234;14.320;2024-02-26T10:37:13;11.90;;;5.30;;
11319;SDS011;5715;48.234;14.320;2024-02-26T10:40:01;6.93;;;4.33;;
11319;SDS011;5715;48.234;14.320;2024-02-26T10:42:50;5.50;;;4.17;;
11319;SDS011;5715;48.234;14.320;2024-02-26T10:45:37;9.80;;;5.77;;
11319;SDS011;5715;48.234;14.320;2024-02-26T10:48:30;5.30;;;4.07;;
11319;SDS011;5715;48.234;14.320;2024-02-26T10:51:24;5.60;;;3.60;;
11319;SDS011;5715;48.234;14.320;2024-02-26T10:54:16;7.33;;;4.73;;
11319;SDS011;5715;48.234;14.320;2024-02-26T10:57:05;7.20;;;5.27;;
11319;SDS011;5715;48.234;14.320;2024-02-26T10:59:55;4.37;;;3.93;;
11319;SDS011;5715;48.234;14.320;2024-02-26T11:02:44;14.97;;;5.67;;
11319;SDS011;5715;48.234;14.320;2024-02-26T11:05:35;8.17;;;4.73;;
11319;SDS011;5715;48.234;14.320;2024-02-26T11:08:25;5.03;;;4.03;;
11319;SDS011;5715;48.234;14.320;2024-02-26T11:11:14;7.63;;;5.17;;
11319;SDS011;5715;48.234;14.320;2024-02-26T11:14:04;7.50;;;5.43;;
11319;SDS011;5715;48.234;14.320;2024-02-26T11:16:56;4.80;;;3.97;;
11319;SDS011;5715;48.234;14.320;2024-02-26T11:19:46;9.03;;;4.67;;
11319;SDS011;5715;48.234;14.320;2024-02-26T11:22:37;8.77;;;4.63;;
11319;SDS011;5715;48.234;14.320;2024-02-26T11:25:25;6.67;;;3.97;;
11319;SDS011;5715;48.234;14.320;2024-02-26T11:28:13;7.00;;;4.17;;
11319;SDS011;5715;48.234;14.320;2024-02-26T11:31:04;7.83;;;4.03;;
11319;SDS011;5715;48.234;14.320;2024-02-26T11:33:54;4.30;;;3.20;;
11319;SDS011;5715;48.234;14.320;2024-02-26T11:36:44;7.43;;;4.10;;
11319;SDS011;5715;48.234;14.320;2024-02-26T11:39:33;9.47;;;3.60;;
11319;SDS011;5715;48.234;14.320;2024-02-26T11:42:23;3.20;;;2.73;;
11319;SDS011;5715;48.234;14.320;2024-02-26T11:48:28;2.60;;;1.63;;
11319;SDS011;5715;48.234;14.320;2024-02-26T11:51:16;3.63;;;1.73;;
11319;SDS011;5715;48.234;14.320;2024-02-26T11:54:04;1.67;;;1.57;;
11319;SDS011;5715;48.234;14.320;2024-02-26T11:56:52;2.27;;;2.07;;
11319;SDS011;5715;48.234;14.320;2024-02-26T11:59:39;4.27;;;1.90;;
11319;SDS011;5715;48.234;14.320;2024-02-26T12:05:48;2.07;;;1.80;;
11319;SDS011;5715;48.234;14.320;2024-02-26T12:08:36;3.33;;;1.70;;
11319;SDS011;5715;48.234;14.320;2024-02-26T12:11:27;1.60;;;1.30;;
11319;SDS011;5715;48.234;14.320;2024-02-26T12:14:17;2.37;;;1.80;;
11319;SDS011;5715;48.234;14.320;2024-02-26T12:17:05;3.10;;;1.40;;
11319;SDS011;5715;48.234;14.320;2024-02-26T12:20:09;2.33;;;1.87;;
11319;SDS011;5715;48.234;14.320;2024-02-26T12:22:58;1.50;;;1.40;;
11319;SDS011;5715;48.234;14.320;2024-02-26T12:25:46;3.87;;;1.90;;
11319;SDS011;5715;48.234;14.320;2024-02-26T12:28:35;2.23;;;1.97;;
11319;SDS011;5715;48.234;14.320;2024-02-26T12:31:22;2.47;;;2.10;;
11319;SDS011;5715;48.234;14.320;2024-02-26T12:34:10;8.83;;;2.00;;
11319;SDS011;5715;48.234;14.320;2024-02-26T12:36:58;2.67;;;2.03;;
11319;SDS011;5715;48.234;14.320;2024-02-26T12:39:46;2.43;;;1.90;;
11319;SDS011;5715;48.234;14.320;2024-02-26T12:42:33;3.47;;;2.90;;
11319;SDS011;5715;48.234;14.320;2024-02-26T12:45:26;3.63;;;2.37;;
11319;SDS011;5715;48.234;14.320;2024-02-26T12:48:15;3.00;;;2.57;;
11319;SDS011;5715;48.234;14.320;2024-02-26T12:51:06;5.13;;;2.77;;
11319;SDS011;5715;48.234;14.320;2024-02-26T12:54:01;5.80;;;2.47;;
11319;SDS011;5715;48.234;14.320;2024-02-26T12:56:50;12.30;;;3.10;;
11319;SDS011;5715;48.234;14.320;2024-02-26T12:59:38;2.67;;;2.27;;
11319;SDS011;5715;48.234;14.320;2024-02-26T13:02:26;6.20;;;2.87;;
11319;SDS011;5715;48.234;14.320;2024-02-26T13:05:19;8.73;;;3.57;;
11319;SDS011;5715;48.234;14.320;2024-02-26T13:08:08;7.90;;;2.70;;
11319;SDS011;5715;48.234;14.320;2024-02-26T13:10:56;13.97;;;2.87;;
11319;SDS011;5715;48.234;14.320;2024-02-26T13:13:47;4.37;;;2.70;;
11319;SDS011;5715;48.234;14.320;2024-02-26T13:16:39;3.60;;;2.80;;
11319;SDS011;5715;48.234;14.320;2024-02-26T13:19:27;3.77;;;2.30;;
11319;SDS011;5715;48.234;14.320;2024-02-26T13:22:15;4.03;;;2.40;;
11319;SDS011;5715;48.234;14.320;2024-02-26T13:25:03;4.73;;;3.20;;
11319;SDS011;5715;48.234;14.320;2024-02-26T13:27:51;3.30;;;2.43;;
11319;SDS011;5715;48.234;14.320;2024-02-26T13:30:38;3.00;;;2.33;;
11319;SDS011;5715;48.234;14.320;2024-02-26T13:33:27;4.33;;;3.10;;
11319;SDS011;5715;48.234;14.320;2024-02-26T13:36:16;3.60;;;2.30;;
11319;SDS011;5715;48.234;14.320;2024-02-26T13:39:04;3.37;;;2.90;;
11319;SDS011;5715;48.234;14.320;2024-02-26T13:41:52;4.43;;;2.20;;
11319;SDS011;5715;48.234;14.320;2024-02-26T13:44:41;4.83;;;3.27;;
11319;SDS011;5715;48.234;14.320;2024-02-26T13:47:29;2.63;;;2.10;;
11319;SDS011;5715;48.234;14.320;2024-02-26T13:50:19;2.83;;;2.30;;
11319;SDS011;5715;48.234;14.320;2024-02-26T13:53:10;2.53;;;2.33;;
11319;SDS011;5715;48.234;14.320;2024-02-26T13:55:59;4.60;;;3.40;;
11319;SDS011;5715;48.234;14.320;2024-02-26T13:58:47;3.30;;;2.70;;
11319;SDS011;5715;48.234;14.320;2024-02-26T14:01:35;3.43;;;2.33;;
11319;SDS011;5715;48.234;14.320;2024-02-26T14:04:23;5.90;;;3.07;;
11319;SDS011;5715;48.234;14.320;2024-02-26T14:07:10;4.47;;;3.07;;
11319;SDS011;5715;48.234;14.320;2024-02-26T14:09:59;3.53;;;2.47;;
11319;SDS011;5715;48.234;14.320;2024-02-26T14:12:47;4.00;;;2.70;;
11319;SDS011;5715;48.234;14.320;2024-02-26T14:15:35;6.07;;;2.93;;
11319;SDS011;5715;48.234;14.320;2024-02-26T14:18:25;5.13;;;2.93;;
11319;SDS011;5715;48.234;14.320;2024-02-26T14:21:14;4.50;;;3.30;;
11319;SDS011;5715;48.234;14.320;2024-02-26T14:24:02;5.53;;;2.53;;
11319;SDS011;5715;48.234;14.320;2024-02-26T14:26:50;9.37;;;3.03;;
11319;SDS011;5715;48.234;14.320;2024-02-26T14:29:38;2.83;;;2.57;;
11319;SDS011;5715;48.234;14.320;2024-02-26T14:32:28;5.17;;;2.70;;
11319;SDS011;5715;48.234;14.320;2024-02-26T14:35:16;2.50;;;2.07;;
11319;SDS011;5715;48.234;14.320;2024-02-26T14:38:04;5.10;;;3.07;;
11319;SDS011;5715;48.234;14.320;2024-02-26T14:40:51;10.77;;;2.60;;
11319;SDS011;5715;48.234;14.320;2024-02-26T14:43:39;8.13;;;3.10;;
11319;SDS011;5715;48.234;14.320;2024-02-26T14:46:30;2.70;;;2.27;;
11319;SDS011;5715;48.234;14.320;2024-02-26T14:49:17;5.87;;;3.67;;
11319;SDS011;5715;48.234;14.320;2024-02-26T14:52:05;9.57;;;2.43;;
11319;SDS011;5715;48.234;14.320;2024-02-26T14:54:53;3.40;;;2.60;;
11319;SDS011;5715;48.234;14.320;2024-02-26T14:57:40;4.07;;;3.07;;
11319;SDS011;5715;48.234;14.320;2024-02-26T15:00:28;3.87;;;2.10;;
11319;SDS011;5715;48.234;14.320;2024-02-26T15:03:16;8.73;;;2.83;;
11319;SDS011;5715;48.234;14.320;2024-02-26T15:06:04;5.43;;;2.50;;
11319;SDS011;5715;48.234;14.320;2024-02-26T15:08:52;3.53;;;2.33;;
11319;SDS011;5715;48.234;14.320;2024-02-26T15:11:40;7.07;;;2.50;;
11319;SDS011;5715;48.234;14.320;2024-02-26T15:14:27;2.90;;;2.40;;
11319;SDS011;5715;48.234;14.320;2024-02-26T15:17:15;4.77;;;2.80;;
11319;SDS011;5715;48.234;14.320;2024-02-26T15:20:03;3.10;;;2.43;;
11319;SDS011;5715;48.234;14.320;2024-02-26T15:22:54;2.00;;;1.80;;
11319;SDS011;5715;48.234;14.320;2024-02-26T15:25:42;3.90;;;2.53;;
11319;SDS011;5715;48.234;14.320;2024-02-26T15:28:31;5.13;;;2.53;;
11319;SDS011;5715;48.234;14.320;2024-02-26T15:31:19;4.43;;;2.60;;
11319;SDS011;5715;48.234;14.320;2024-02-26T15:34:07;3.87;;;2.43;;
11319;SDS011;5715;48.234;14.320;2024-02-26T15:36:54;4.17;;;2.13;;
11319;SDS011;5715;48.234;14.320;2024-02-26T15:39:42;2.87;;;2.40;;
11319;SDS011;5715;48.234;14.320;2024-02-26T15:42:32;16.23;;;3.00;;
11319;SDS011;5715;48.234;14.320;2024-02-26T15:45:20;3.53;;;2.43;;
11319;SDS011;5715;48.234;14.320;2024-02-26T15:48:08;4.47;;;2.47;;
11319;SDS011;5715;48.234;14.320;2024-02-26T15:50:57;5.03;;;2.63;;
11319;SDS011;5715;48.234;14.320;2024-02-26T15:53:45;8.20;;;2.20;;
11319;SDS011;5715;48.234;14.320;2024-02-26T15:56:34;5.20;;;2.33;;
11319;SDS011;5715;48.234;14.320;2024-02-26T15:59:22;2.67;;;1.97;;
11319;SDS011;5715;48.234;14.320;2024-02-26T16:02:11;4.03;;;2.53;;
11319;SDS011;5715;48.234;14.320;2024-02-26T16:04:59;4.27;;;2.70;;
11319;SDS011;5715;48.234;14.320;2024-02-26T16:07:54;2.90;;;2.03;;
11319;SDS011;5715;48.234;14.320;2024-02-26T16:10:47;2.67;;;2.30;;
11319;SDS011;5715;48.234;14.320;2024-02-26T16:13:35;6.67;;;2.67;;
11319;SDS011;5715;48.234;14.320;2024-02-26T16:16:23;3.60;;;2.43;;
11319;SDS011;5715;48.234;14.320;2024-02-26T16:19:18;2.60;;;2.13;;
11319;SDS011;5715;48.234;14.320;2024-02-26T16:22:07;10.57;;;2.40;;
11319;SDS011;5715;48.234;14.320;2024-02-26T16:24:55;4.10;;;2.43;;
11319;SDS011;5715;48.234;14.320;2024-02-26T16:27:43;4.40;;;2.87;;
11319;SDS011;5715;48.234;14.320;2024-02-26T16:30:31;7.10;;;2.00;;
11319;SDS011;5715;48.234;14.320;2024-02-26T16:33:19;3.40;;;2.63;;
11319;SDS011;5715;48.234;14.320;2024-02-26T16:36:08;7.90;;;2.50;;
11319;SDS011;5715;48.234;14.320;2024-02-26T16:38:58;2.97;;;2.63;;
11319;SDS011;5715;48.234;14.320;2024-02-26T16:41:47;3.37;;;2.17;;
11319;SDS011;5715;48.234;14.320;2024-02-26T16:44:34;2.73;;;2.10;;
11319;SDS011;5715;48.234;14.320;2024-02-26T16:47:23;4.10;;;2.80;;
11319;SDS011;5715;48.234;14.320;2024-02-26T16:50:11;2.83;;;2.30;;
11319;SDS011;5715;48.234;14.320;2024-02-26T16:52:59;3.13;;;2.13;;
11319;SDS011;5715;48.234;14.320;2024-02-26T16:55:47;5.60;;;2.63;;
11319;SDS011;5715;48.234;14.320;2024-02-26T16:58:35;2.70;;;2.47;;
11319;SDS011;5715;48.234;14.320;2024-02-26T17:01:22;5.70;;;2.37;;